Time;durP1;ratioP1;P1;durP2;ratioP2;P2;SDS_P1;SDS_P2;PMS_P1;PMS_P2;Temp;Humidity;BMP_temperature;BMP_pressure;BME280_temperature;BME280_humidity;BME280_pressure;Samples;Min_cycle;Max_cycle;Signal;HPM_P1;HPM_P2
2021/09/01 00:01:04;;;;;;;11.93;7.20;;;;;;;;;;4979811;28;20123;-88
2021/09/01 00:04:13;;;;;;;11.43;7.63;;;;;;;;;;4979046;28;20444;-89
2021/09/01 00:06:47;;;;;;;9.43;6.95;;;;;;;;;;4956975;28;20389;-89
2021/09/01 00:09:18;;;;;;;9.57;7.65;;;;;;;;;;4980538;28;20386;-89
2021/09/01 00:12:30;;;;;;;;;;;;;;;;;;;;;
2021/09/01 00:14:59;;;;;;;13.48;6.88;;;;;;;;;;4977948;28;20441;-91
2021/09/01 00:17:37;;;;;;;;;;;;;;;;;;;;;
2021/09/01 00:20:06;;;;;;;13.52;7.82;;;;;;;;;;4974162;28;20042;-91
2021/09/01 00:22:32;;;;;;;10.85;7.85;;;;;;;;;;4978964;28;20421;-90
2021/09/01 00:25:03;;;;;;;11.85;7.60;;;;;;;;;;4963375;28;20038;-88
2021/09/01 00:30:47;;;;;;;10.55;7.43;;;;;;;;;;4978071;28;20027;-89
2021/09/01 00:33:18;;;;;;;13.43;7.63;;;;;;;;;;4987659;28;20746;-89
2021/09/01 00:35:58;;;;;;;13.77;8.43;;;;;;;;;;4978576;28;20389;-88
2021/09/01 00:38:52;;;;;;;11.35;8.13;;;;;;;;;;4982133;28;20600;-89
2021/09/01 00:44:35;;;;;;;13.23;7.40;;;;;;;;;;4980832;28;20034;-88
2021/09/01 00:47:19;;;;;;;12.73;7.75;;;;;;;;;;4987923;28;20030;-87
2021/09/01 00:50:32;;;;;;;;;;;;;;;;;;;;;
2021/09/01 00:52:58;;;;;;;13.52;8.80;;;;;;;;;;4981763;28;20522;-88
2021/09/01 00:55:23;;;;;;;11.70;8.47;;;;;;;;;;4977627;28;20089;-87
2021/09/01 00:58:11;;;;;;;13.00;8.57;;;;;;;;;;4983158;28;20268;-89
2021/09/01 01:01:15;;;;;;;17.17;9.32;;;;;;;;;;4975757;28;20437;-89
2021/09/01 01:03:54;;;;;;;13.82;7.90;;;;;;;;;;4984471;28;20381;-88
2021/09/01 01:06:31;;;;;;;11.73;8.02;;;;;;;;;;4974178;28;20021;-87
2021/09/01 01:09:35;;;;;;;12.77;8.20;;;;;;;;;;4975433;28;20022;-88
2021/09/01 01:12:39;;;;;;;12.65;8.93;;;;;;;;;;4981561;28;20030;-88
2021/09/01 01:15:32;;;;;;;12.50;8.52;;;;;;;;;;4977514;28;20410;-89
2021/09/01 01:18:21;;;;;;;13.70;8.70;;;;;;;;;;4979179;28;20015;-89
2021/09/01 01:21:15;;;;;;;;;;;;;;;;;;;;;
2021/09/01 01:24:05;;;;;;;12.05;8.80;;;;;;;;;;4981741;28;20353;-88
2021/09/01 01:26:30;;;;;;;10.82;7.45;;;;;;;;;;4979803;28;20277;-88
2021/09/01 01:29:01;;;;;;;14.13;9.23;;;;;;;;;;4983674;28;20034;-89
2021/09/01 01:31:35;;;;;;;12.77;8.13;;;;;;;;;;4985607;28;20100;-89
2021/09/01 01:34:06;;;;;;;11.98;7.60;;;;;;;;;;4977179;28;20081;-88
2021/09/01 01:36:31;;;;;;;12.68;8.40;;;;;;;;;;4983238;28;20044;-88
2021/09/01 01:38:56;;;;;;;15.98;9.65;;;;;;;;;;4974908;28;20030;-87
2021/09/01 01:41:40;;;;;;;11.73;7.75;;;;;;;;;;4979393;28;20106;-88
2021/09/01 01:44:08;;;;;;;11.60;7.60;;;;;;;;;;4982705;28;20107;-88
2021/09/01 01:46:33;;;;;;;10.87;8.43;;;;;;;;;;4986660;28;20054;-88
2021/09/01 01:49:23;;;;;;;12.85;7.53;;;;;;;;;;4982204;28;20285;-89
2021/09/01 01:51:56;;;;;;;;;;;;;;;;;;4983439;28;20239;-88
2021/09/01 01:54:21;;;;;;;14.15;8.48;;;;;;;;;;4985764;28;19970;-89
2021/09/01 01:57:04;;;;;;;14.82;8.98;;;;;;;;;;4974516;28;20047;-88
2021/09/01 01:59:58;;;;;;;20.20;9.02;;;;;;;;;;4983899;28;20045;-88
2021/09/01 02:02:30;;;;;;;10.43;7.63;;;;;;;;;;4945204;28;20098;-88
2021/09/01 02:05:00;;;;;;;11.60;8.25;;;;;;;;;;4984323;28;20374;-87
2021/09/01 02:07:35;;;;;;;;;;;;;;;;;;4978775;28;20546;-86
2021/09/01 02:10:05;;;;;;;12.38;7.75;;;;;;;;;;4967815;28;19917;-86
2021/09/01 02:15:43;;;;;;;;;;;;;;;;;;4969305;28;20113;-87
2021/09/01 02:18:35;;;;;;;13.05;7.63;;;;;;;;;;4989043;28;19910;-89
2021/09/01 02:21:03;;;;;;;11.02;8.45;;;;;;;;;;4975898;28;20359;-89
2021/09/01 02:23:31;;;;;;;13.48;9.15;;;;;;;;;;4975761;28;20050;-89
2021/09/01 02:26:32;;;;;;;14.57;9.15;;;;;;;;;;4978941;28;20021;-90
2021/09/01 02:29:27;;;;;;;13.63;8.63;;;;;;;;;;4972759;28;21752;-88
2021/09/01 02:31:52;;;;;;;13.65;9.65;;;;;;;;;;4972919;28;20018;-89
2021/09/01 02:34:40;;;;;;;19.00;8.60;;;;;;;;;;4978389;28;20036;-88
2021/09/01 02:37:05;;;;;;;14.23;9.63;;;;;;;;;;4959722;28;20559;-89
2021/09/01 02:39:31;;;;;;;18.27;10.82;;;;;;;;;;4979037;28;20034;-89
2021/09/01 02:42:02;;;;;;;15.60;9.75;;;;;;;;;;4973868;28;20263;-88
2021/09/01 02:44:30;;;;;;;12.95;8.93;;;;;;;;;;4973553;28;20046;-89
2021/09/01 02:46:58;;;;;;;17.70;10.48;;;;;;;;;;4973772;28;20038;-89
2021/09/01 02:49:32;;;;;;;15.55;9.45;;;;;;;;;;4958359;28;20182;-89
2021/09/01 02:51:57;;;;;;;17.50;9.98;;;;;;;;;;4975531;28;20011;-88
2021/09/01 02:54:59;;;;;;;13.57;10.20;;;;;;;;;;4980409;28;20029;-89
2021/09/01 02:57:27;;;;;;;15.75;9.65;;;;;;;;;;4978077;28;20035;-89
2021/09/01 02:59:52;;;;;;;16.55;9.27;;;;;;;;;;4976541;28;20039;-89
2021/09/01 03:02:57;;;;;;;14.25;10.30;;;;;;;;;;4976432;28;20485;-87
2021/09/01 03:05:52;;;;;;;12.85;9.10;;;;;;;;;;4985063;28;20027;-88
2021/09/01 03:08:26;;;;;;;15.75;9.40;;;;;;;;;;4959110;28;20065;-89
2021/09/01 03:10:54;;;;;;;16.63;11.20;;;;;;;;;;4981527;28;20030;-88
2021/09/01 03:13:42;;;;;;;13.82;10.55;;;;;;;;;;4971865;28;20034;-88
2021/09/01 03:19:47;;;;;;;16.13;11.30;;;;;;;;;;4977806;28;20513;-89
2021/09/01 03:22:36;;;;;;;14.43;9.55;;;;;;;;;;4968446;28;20023;-88
2021/09/01 03:28:39;;;;;;;17.88;11.73;;;;;;;;;;4966673;28;20029;-88
2021/09/01 03:31:34;;;;;;;;;;;;;;;;;;;;;
2021/09/01 03:34:40;;;;;;;15.20;10.25;;;;;;;;;;4965344;28;20121;-88
2021/09/01 03:43:20;;;;;;;16.30;10.27;;;;;;;;;;4976025;28;20111;-89
2021/09/01 03:46:02;;;;;;;14.93;10.75;;;;;;;;;;4955274;28;20026;-89
2021/09/01 03:49:10;;;;;;;14.80;10.20;;;;;;;;;;4977043;28;20023;-88
2021/09/01 03:51:38;;;;;;;13.98;9.77;;;;;;;;;;4921798;28;20378;-88
2021/09/01 03:54:32;;;;;;;15.60;11.07;;;;;;;;;;4973016;28;20030;-89
2021/09/01 03:57:01;;;;;;;14.52;9.40;;;;;;;;;;4958571;28;20428;-90
2021/09/01 03:59:27;;;;;;;17.13;10.00;;;;;;;;;;4974360;28;20049;-90
2021/09/01 04:04:53;;;;;;;21.23;11.45;;;;;;;;;;4930391;29;20372;-89
2021/09/01 04:07:45;;;;;;;17.58;9.55;;;;;;;;;;4924414;29;20035;-88
2021/09/01 04:10:13;;;;;;;23.25;11.02;;;;;;;;;;4964813;28;20027;-89
2021/09/01 04:16:19;;;;;;;;;;;;;;;;;;;;;
2021/09/01 04:22:22;;;;;;;16.27;10.57;;;;;;;;;;4967016;28;20034;-89
2021/09/01 04:25:31;;;;;;;14.88;10.68;;;;;;;;;;4986228;28;20051;-89
2021/09/01 04:27:54;;;;;;;16.75;11.25;;;;;;;;;;4972682;28;20041;-89
2021/09/01 04:36:50;;;;;;;16.27;11.15;;;;;;;;;;4973390;28;20019;-89
2021/09/01 04:39:53;;;;;;;21.45;12.05;;;;;;;;;;4977931;28;20504;-89
2021/09/01 04:42:22;;;;;;;16.77;12.00;;;;;;;;;;4976194;28;20424;-88
2021/09/01 04:44:50;;;;;;;15.02;10.40;;;;;;;;;;4975555;28;20023;-89
2021/09/01 04:47:54;;;;;;;18.55;11.30;;;;;;;;;;4972009;28;20442;-89
2021/09/01 04:50:19;;;;;;;16.35;11.98;;;;;;;;;;4975977;28;20050;-91
2021/09/01 04:52:48;;;;;;;15.18;10.63;;;;;;;;;;4990794;28;20136;-90
2021/09/01 04:55:15;;;;;;;15.60;10.93;;;;;;;;;;4991104;28;20026;-90
2021/09/01 05:00:59;;;;;;;17.13;12.80;;;;;;;;;;4959150;28;20044;-89
2021/09/01 05:03:27;;;;;;;16.38;9.93;;;;;;;;;;4956361;28;20030;-85
2021/09/01 05:06:03;;;;;;;19.23;10.88;;;;;;;;;;4956930;28;20146;-89
2021/09/01 05:08:39;;;;;;;;;;;;;;;;;;;;;
2021/09/01 05:11:05;;;;;;;17.70;11.18;;;;;;;;;;4950293;28;20050;-89
2021/09/01 05:16:28;;;;;;;17.52;10.98;;;;;;;;;;4963300;28;20034;-87
2021/09/01 05:18:53;;;;;;;15.40;11.60;;;;;;;;;;4946018;28;20030;-90
2021/09/01 05:22:10;;;;;;;;;;;;;;;;;;;;;
2021/09/01 05:30:49;;;;;;;14.68;9.93;;;;;;;;;;4920402;29;20050;-85
2021/09/01 05:33:35;;;;;;;15.10;10.73;;;;;;;;;;4924352;29;20035;-86
2021/09/01 05:36:00;;;;;;;18.67;12.45;;;;;;;;;;4920894;29;20552;-87
2021/09/01 05:38:49;;;;;;;18.52;11.18;;;;;;;;;;4943340;28;20498;-89
2021/09/01 05:44:27;;;;;;;15.77;12.23;;;;;;;;;;4958807;28;20461;-89
2021/09/01 05:47:18;;;;;;;16.92;12.23;;;;;;;;;;4953694;28;20133;-87
2021/09/01 05:49:44;;;;;;;18.45;11.95;;;;;;;;;;4955223;28;20381;-88
2021/09/01 05:52:30;;;;;;;14.27;10.80;;;;;;;;;;4963121;28;20054;-84
2021/09/01 05:55:03;;;;;;;19.17;13.07;;;;;;;;;;4955234;28;20055;-86
2021/09/01 05:57:42;;;;;;;17.95;12.48;;;;;;;;;;4960508;28;20313;-87
2021/09/01 06:00:15;;;;;;;18.75;13.23;;;;;;;;;;4960726;28;20114;-82
2021/09/01 06:05:56;;;;;;;19.92;13.35;;;;;;;;;;4954146;28;20026;-85
2021/09/01 06:08:32;;;;;;;18.45;11.50;;;;;;;;;;4958286;28;20027;-88
2021/09/01 06:13:46;;;;;;;16.90;11.98;;;;;;;;;;4940341;28;20510;-88
2021/09/01 06:16:28;;;;;;;17.45;11.32;;;;;;;;;;4954265;29;20458;-89
2021/09/01 06:18:56;;;;;;;15.38;11.65;;;;;;;;;;4964707;28;20022;-88
2021/09/01 06:21:26;;;;;;;15.77;10.10;;;;;;;;;;4948964;28;20046;-88
2021/09/01 06:24:24;;;;;;;;;;;;;;;;;;;;;
2021/09/01 06:26:50;;;;;;;17.00;10.57;;;;;;;;;;4947782;28;20058;-89
2021/09/01 06:29:15;;;;;;;15.73;10.70;;;;;;;;;;4973071;28;20061;-88
2021/09/01 06:32:01;;;;;;;15.70;10.65;;;;;;;;;;4954899;28;20020;-90
2021/09/01 06:34:26;;;;;;;15.85;12.07;;;;;;;;;;4955697;28;20027;-90
2021/09/01 06:36:55;;;;;;;16.48;12.40;;;;;;;;;;4965645;28;20465;-89
2021/09/01 06:39:48;;;;;;;17.37;11.77;;;;;;;;;;4965555;28;20443;-89
2021/09/01 06:42:14;;;;;;;18.98;11.93;;;;;;;;;;4969112;28;20318;-87
2021/09/01 06:44:39;;;;;;;15.27;12.38;;;;;;;;;;4962300;28;20043;-91
2021/09/01 06:47:05;;;;;;;15.68;12.30;;;;;;;;;;4960271;28;20055;-86
2021/09/01 06:49:40;;;;;;;14.88;12.10;;;;;;;;;;4960162;28;20097;-89
2021/09/01 06:52:17;;;;;;;;;;;;;;;;;;;;;
2021/09/01 07:14:28;;;;;;;17.38;12.55;;;;;;;;;;4852871;29;20037;-90
2021/09/01 07:17:24;;;;;;;16.90;13.60;;;;;;;;;;4877516;29;20479;-90
2021/09/01 07:20:50;;;;;;;;;;;;;;;;;;;;;
2021/09/01 07:23:48;;;;;;;;;;;;;;;;;;;;;
2021/09/01 07:26:26;;;;;;;16.73;13.20;;;;;;;;;;4877567;29;20108;-88
2021/09/01 07:32:00;;;;;;;18.15;13.45;;;;;;;;;;4933225;28;20046;-90
2021/09/01 07:34:26;;;;;;;19.90;13.77;;;;;;;;;;4967674;28;20023;-89
2021/09/01 07:36:51;;;;;;;20.05;14.80;;;;;;;;;;4978113;28;20026;-89
2021/09/01 07:39:17;;;;;;;20.92;15.52;;;;;;;;;;4973140;28;20015;-89
2021/09/01 07:41:52;;;;;;;20.38;15.43;;;;;;;;;;4972960;28;20054;-91
2021/09/01 07:44:17;;;;;;;22.98;17.67;;;;;;;;;;4971194;28;20425;-90
2021/09/01 07:46:43;;;;;;;22.10;17.63;;;;;;;;;;4971375;28;20068;-88
2021/09/01 07:49:40;;;;;;;20.85;16.35;;;;;;;;;;4955378;28;20015;-90
2021/09/01 07:52:06;;;;;;;20.00;17.02;;;;;;;;;;4970195;28;20019;-87
2021/09/01 07:54:31;;;;;;;23.77;18.00;;;;;;;;;;4969562;28;20018;-89
2021/09/01 07:57:22;;;;;;;22.40;16.73;;;;;;;;;;4972521;28;20026;-90
2021/09/01 08:00:36;;;;;;;;;;;;;;;;;;;;;
2021/09/01 08:02:56;;;;;;;23.00;16.58;;;;;;;;;;4954148;28;20027;-89
2021/09/01 08:12:03;;;;;;;;;;;;;;;;;;;;;
2021/09/01 08:18:30;;;;;;;24.60;16.92;;;;;;;;;;4942026;28;20049;-92
2021/09/01 08:20:55;;;;;;;19.70;15.35;;;;;;;;;;4955408;28;20034;-88
2021/09/01 08:23:24;;;;;;;21.05;16.40;;;;;;;;;;4974022;28;20030;-89
2021/09/01 08:25:56;;;;;;;19.02;15.68;;;;;;;;;;4955000;28;20011;-91
2021/09/01 08:28:51;;;;;;;;;;;;;;;;;;;;;
2021/09/01 08:31:17;;;;;;;22.35;16.05;;;;;;;;;;4958408;28;20098;-89
2021/09/01 08:33:42;;;;;;;26.92;22.48;;;;;;;;;;4965700;28;20014;-88
2021/09/01 08:36:08;;;;;;;24.35;18.10;;;;;;;;;;4958145;28;20027;-89
2021/09/01 08:38:43;;;;;;;17.55;14.95;;;;;;;;;;4961282;28;20070;-89
2021/09/01 08:41:09;;;;;;;18.92;14.40;;;;;;;;;;4944504;29;20035;-89
2021/09/01 08:47:09;;;;;;;18.35;14.68;;;;;;;;;;4959107;28;20117;-89
2021/09/01 08:49:43;;;;;;;17.00;13.20;;;;;;;;;;4956635;28;20074;-88
2021/09/01 08:52:09;;;;;;;13.77;11.20;;;;;;;;;;4962939;28;20114;-86
2021/09/01 08:54:46;;;;;;;16.15;13.05;;;;;;;;;;4958467;28;20106;-87
2021/09/01 09:04:41;;;;;;;14.60;11.48;;;;;;;;;;4878907;29;20065;-92
2021/09/01 09:20:06;;;;;;;;;;;;;;;;;;;;;
2021/09/01 09:22:58;;;;;;;12.75;8.95;;;;;;;;;;4856721;29;20029;-90
2021/09/01 09:25:28;;;;;;;15.60;11.48;;;;;;;;;;4906937;29;20058;-90
2021/09/01 09:28:01;;;;;;;12.05;8.20;;;;;;;;;;4893181;29;20031;-89
2021/09/01 09:33:43;;;;;;;12.52;9.55;;;;;;;;;;4938761;28;20054;-89
2021/09/01 09:36:09;;;;;;;12.18;7.85;;;;;;;;;;4954135;29;20020;-89
2021/09/01 09:38:34;;;;;;;10.38;7.93;;;;;;;;;;4935474;28;20545;-89
2021/09/01 09:41:16;;;;;;;;;;;;;;;;;;;;;
2021/09/01 09:43:42;;;;;;;13.77;9.43;;;;;;;;;;4927752;29;20034;-91
2021/09/01 09:46:13;;;;;;;12.15;8.20;;;;;;;;;;4963111;28;20042;-88
2021/09/01 09:48:40;;;;;;;12.30;7.85;;;;;;;;;;4936937;29;20433;-88
2021/09/01 09:51:06;;;;;;;8.27;6.38;;;;;;;;;;4958115;28;20220;-88
2021/09/01 09:53:31;;;;;;;10.38;6.72;;;;;;;;;;4979901;28;20054;-88
2021/09/01 09:56:09;;;;;;;10.02;6.82;;;;;;;;;;4964340;29;20094;-89
2021/09/01 09:58:36;;;;;;;7.95;5.90;;;;;;;;;;4976118;28;20020;-90
2021/09/01 10:01:05;;;;;;;10.43;6.53;;;;;;;;;;4943039;29;20450;-89
2021/09/01 10:03:31;;;;;;;7.40;5.47;;;;;;;;;;4969484;28;20548;-91
2021/09/01 10:12:55;;;;;;;6.22;4.50;;;;;;;;;;4869702;29;20181;-89
2021/09/01 10:15:31;;;;;;;6.95;4.75;;;;;;;;;;4876204;29;20092;-92
2021/09/01 10:18:19;;;;;;;6.82;4.70;;;;;;;;;;4878657;29;20452;-90
2021/09/01 10:20:45;;;;;;;8.30;5.50;;;;;;;;;;4947016;28;20377;-90
2021/09/01 10:23:10;;;;;;;8.55;5.40;;;;;;;;;;4976633;28;20011;-88
2021/09/01 10:25:49;;;;;;;9.48;5.88;;;;;;;;;;4979065;28;20105;-87
2021/09/01 10:28:23;;;;;;;8.07;5.18;;;;;;;;;;4976082;28;20377;-85
2021/09/01 10:31:07;;;;;;;9.90;5.65;;;;;;;;;;4974039;28;20030;-87
2021/09/01 11:03:12;;;;;;;7.43;5.10;;;;;;;;;;4958626;28;20066;-85
2021/09/01 11:05:37;;;;;;;7.85;4.65;;;;;;;;;;5011625;28;20018;-87
2021/09/01 11:08:03;;;;;;;8.43;5.32;;;;;;;;;;5011622;28;20025;-88
2021/09/01 11:10:29;;;;;;;11.20;8.90;;;;;;;;;;5010349;28;20656;-87
2021/09/01 11:13:01;;;;;;;11.13;7.15;;;;;;;;;;5011511;28;20428;-88
2021/09/01 11:15:27;;;;;;;7.45;4.90;;;;;;;;;;5011914;28;20074;-88
2021/09/01 11:18:07;;;;;;;8.70;4.78;;;;;;;;;;5011387;28;20239;-87
2021/09/01 11:20:33;;;;;;;8.80;5.30;;;;;;;;;;5009845;28;20388;-86
2021/09/01 11:22:59;;;;;;;6.85;5.60;;;;;;;;;;5011038;28;20025;-84
2021/09/01 11:25:24;;;;;;;7.55;5.35;;;;;;;;;;5011213;28;20372;-85
2021/09/01 11:27:56;;;;;;;7.22;5.07;;;;;;;;;;5010545;28;20076;-86
2021/09/01 11:30:21;;;;;;;7.93;5.30;;;;;;;;;;5011210;28;20464;-85
2021/09/01 11:32:52;;;;;;;6.70;4.75;;;;;;;;;;5008703;28;20109;-85
2021/09/01 11:35:20;;;;;;;5.95;4.40;;;;;;;;;;5010639;28;20428;-87
2021/09/01 11:37:55;;;;;;;7.15;5.00;;;;;;;;;;5009864;28;20018;-87
2021/09/01 11:40:20;;;;;;;8.13;5.20;;;;;;;;;;5007154;28;20444;-86
2021/09/01 11:42:47;;;;;;;8.33;5.43;;;;;;;;;;4997358;28;20033;-85
2021/09/01 11:45:12;;;;;;;7.45;5.20;;;;;;;;;;4976076;28;20854;-87
2021/09/01 11:47:42;;;;;;;23.33;19.50;;;;;;;;;;4999566;28;20109;-86
2021/09/01 11:50:07;;;;;;;14.60;12.70;;;;;;;;;;4993391;28;21005;-85
2021/09/01 11:52:34;;;;;;;8.95;5.95;;;;;;;;;;5002875;28;20019;-88
2021/09/01 11:55:00;;;;;;;8.45;5.43;;;;;;;;;;5000106;28;20375;-87
2021/09/01 11:57:31;;;;;;;7.72;5.18;;;;;;;;;;4997546;28;20018;-88
2021/09/01 11:59:58;;;;;;;6.63;4.85;;;;;;;;;;4998200;28;20433;-88
2021/09/01 12:02:27;;;;;;;6.25;4.72;;;;;;;;;;4996865;28;20018;-86
2021/09/01 12:04:52;;;;;;;6.03;4.25;;;;;;;;;;4991823;28;20100;-86
2021/09/01 12:07:37;;;;;;;6.63;4.50;;;;;;;;;;5006556;28;20113;-87
2021/09/01 12:10:07;;;;;;;6.68;4.82;;;;;;;;;;4987145;28;20271;-88
2021/09/01 12:12:34;;;;;;;8.60;5.75;;;;;;;;;;5003025;28;20026;-86
2021/09/01 12:15:06;;;;;;;8.68;5.30;;;;;;;;;;5002497;28;20419;-85
2021/09/01 12:17:31;;;;;;;7.75;5.25;;;;;;;;;;4990849;28;20377;-87
2021/09/01 12:19:57;;;;;;;8.00;5.53;;;;;;;;;;4994205;28;20022;-91
2021/09/01 12:22:34;;;;;;;8.15;4.90;;;;;;;;;;4996757;28;20678;-88
2021/09/01 12:25:08;;;;;;;7.20;5.28;;;;;;;;;;4993067;28;20401;-88
2021/09/01 12:27:54;;;;;;;6.88;4.63;;;;;;;;;;4989021;28;20026;-94
2021/09/01 12:33:35;;;;;;;10.05;5.32;;;;;;;;;;5006812;28;20034;-89
2021/09/01 12:53:27;;;;;;;6.90;4.57;;;;;;;;;;4963435;28;20050;-88
2021/09/01 12:56:41;;;;;;;;;;;;;;;;;;;;;
2021/09/01 13:05:50;;;;;;;;;;;;;;;;;;;;;
2021/09/01 13:08:16;;;;;;;6.90;4.38;;;;;;;;;;4921534;29;20453;-87
2021/09/01 13:14:21;;;;;;;7.25;4.32;;;;;;;;;;4869839;29;20067;-81
2021/09/01 13:16:46;;;;;;;6.75;4.38;;;;;;;;;;4959394;28;20499;-82
2021/09/01 13:19:12;;;;;;;6.40;4.60;;;;;;;;;;5034659;28;20025;-87
2021/09/01 13:21:37;;;;;;;5.72;4.40;;;;;;;;;;5032778;28;20099;-86
2021/09/01 13:24:03;;;;;;;6.97;4.65;;;;;;;;;;5034254;28;20009;-88
2021/09/01 13:26:28;;;;;;;7.32;5.20;;;;;;;;;;5033741;28;20049;-85
2021/09/01 13:28:53;;;;;;;6.10;4.10;;;;;;;;;;5031540;28;20021;-85
2021/09/01 13:31:19;;;;;;;7.20;4.25;;;;;;;;;;5033222;28;20033;-90
2021/09/01 13:33:44;;;;;;;8.23;4.80;;;;;;;;;;5034174;28;20116;-84
2021/09/01 13:36:10;;;;;;;9.23;4.50;;;;;;;;;;5031508;28;20064;-92
2021/09/01 13:38:35;;;;;;;6.45;4.20;;;;;;;;;;5032771;28;20260;-92
2021/09/01 13:41:01;;;;;;;9.45;4.70;;;;;;;;;;5013735;28;20022;-92
2021/09/01 13:43:26;;;;;;;7.40;4.10;;;;;;;;;;5014348;28;20025;-91
2021/09/01 13:45:51;;;;;;;8.02;4.72;;;;;;;;;;5014883;28;20468;-91
2021/09/01 13:48:20;;;;;;;7.50;4.65;;;;;;;;;;5015234;28;20091;-92
2021/09/01 13:50:48;;;;;;;6.72;4.18;;;;;;;;;;5003059;28;20076;-92
2021/09/01 13:53:17;;;;;;;7.43;4.00;;;;;;;;;;5008087;28;20018;-92
2021/09/01 13:55:44;;;;;;;6.60;4.40;;;;;;;;;;5014698;28;20033;-93
2021/09/01 14:11:23;;;;;;;8.67;4.83;;;;;;;;;;4908168;28;20037;-90
2021/09/01 14:13:49;;;;;;;6.28;4.20;;;;;;;;;;5013303;28;20029;-92
2021/09/01 14:16:56;;;;;;;;;;;;;;;;;;;;;
2021/09/01 14:19:45;;;;;;;6.20;3.90;;;;;;;;;;4964054;28;20527;-91
2021/09/01 14:25:19;;;;;;;7.13;3.93;;;;;;;;;;5007013;28;20076;-92
2021/09/01 14:32:03;;;;;;;;;;;;;;;;;;;;;
2021/09/01 14:34:29;;;;;;;6.45;4.03;;;;;;;;;;4935109;29;20460;-91
2021/09/01 14:36:57;;;;;;;6.35;4.18;;;;;;;;;;5003428;28;20148;-90
2021/09/01 14:39:22;;;;;;;7.65;4.47;;;;;;;;;;4994927;28;20025;-90
2021/09/01 14:42:07;;;;;;;7.97;4.93;;;;;;;;;;5014400;28;20018;-90
2021/09/01 14:44:32;;;;;;;26.67;23.88;;;;;;;;;;5012625;28;20083;-89
2021/09/01 14:46:58;;;;;;;7.80;5.90;;;;;;;;;;5012884;28;20101;-88
2021/09/01 14:49:23;;;;;;;7.28;4.45;;;;;;;;;;4983023;28;20042;-87
2021/09/01 14:51:49;;;;;;;7.80;3.97;;;;;;;;;;4972834;28;20029;-89
2021/09/01 14:54:14;;;;;;;7.07;3.90;;;;;;;;;;4973054;28;20165;-88
2021/09/01 14:57:01;;;;;;;7.27;4.00;;;;;;;;;;4972450;28;20050;-93
2021/09/01 14:59:25;;;;;;;6.50;4.13;;;;;;;;;;4971471;28;20678;-89
2021/09/01 15:01:50;;;;;;;6.78;4.15;;;;;;;;;;4966544;28;20113;-88
2021/09/01 15:04:16;;;;;;;8.15;4.47;;;;;;;;;;4972176;28;20019;-90
2021/09/01 15:06:41;;;;;;;6.95;4.28;;;;;;;;;;4972955;28;20041;-90
2021/09/01 15:09:07;;;;;;;7.70;3.80;;;;;;;;;;4972866;28;20030;-89
2021/09/01 15:11:33;;;;;;;5.75;3.92;;;;;;;;;;4972948;28;20014;-90
2021/09/01 15:14:01;;;;;;;7.15;3.97;;;;;;;;;;4971460;28;20019;-91
2021/09/01 15:16:26;;;;;;;6.93;4.15;;;;;;;;;;4971716;28;20039;-88
2021/09/01 15:18:52;;;;;;;7.18;4.63;;;;;;;;;;4971318;28;20087;-88
2021/09/01 15:21:17;;;;;;;5.35;3.83;;;;;;;;;;4975611;28;20062;-87
2021/09/01 15:23:43;;;;;;;6.65;4.72;;;;;;;;;;4972281;28;20070;-87
2021/09/01 15:26:09;;;;;;;7.03;4.13;;;;;;;;;;4969794;28;20474;-87
2021/09/01 15:28:34;;;;;;;9.25;4.13;;;;;;;;;;4970882;28;20029;-86
2021/09/01 15:31:00;;;;;;;7.82;4.10;;;;;;;;;;4966872;28;20080;-88
2021/09/01 15:33:26;;;;;;;8.32;5.00;;;;;;;;;;4970751;28;20406;-88
2021/09/01 15:35:54;;;;;;;7.75;4.68;;;;;;;;;;4972137;28;20035;-89
2021/09/01 15:38:21;;;;;;;6.18;4.18;;;;;;;;;;4965756;28;20053;-90
2021/09/01 15:40:46;;;;;;;6.60;3.80;;;;;;;;;;4965405;28;20077;-88
2021/09/01 15:43:15;;;;;;;5.78;4.03;;;;;;;;;;4972804;28;20015;-88
2021/09/01 15:45:41;;;;;;;5.65;3.92;;;;;;;;;;4972290;28;20023;-89
2021/09/01 15:48:11;;;;;;;6.72;4.45;;;;;;;;;;4972249;28;20031;-88
2021/09/01 15:50:36;;;;;;;7.90;4.00;;;;;;;;;;4999237;28;20038;-88
2021/09/01 15:53:02;;;;;;;7.00;4.20;;;;;;;;;;5010896;28;20033;-88
2021/09/01 15:55:27;;;;;;;6.10;4.03;;;;;;;;;;4993539;28;20029;-90
2021/09/01 15:57:53;;;;;;;9.02;4.68;;;;;;;;;;4993587;28;20109;-89
2021/09/01 16:00:19;;;;;;;8.57;5.22;;;;;;;;;;5009176;28;20021;-89
2021/09/01 16:02:44;;;;;;;5.93;4.10;;;;;;;;;;4997160;28;20022;-89
2021/09/01 16:05:10;;;;;;;6.88;3.78;;;;;;;;;;5010469;28;20499;-89
2021/09/01 16:07:35;;;;;;;8.13;4.40;;;;;;;;;;5010424;28;20024;-88
2021/09/01 16:10:02;;;;;;;8.82;4.68;;;;;;;;;;4993809;28;20064;-89
2021/09/01 16:12:31;;;;;;;6.10;4.28;;;;;;;;;;5010867;28;20568;-86
2021/09/01 16:15:10;;;;;;;6.95;4.35;;;;;;;;;;5006820;28;20026;-87
2021/09/01 16:17:39;;;;;;;7.15;4.80;;;;;;;;;;5008835;28;20387;-88
2021/09/01 16:20:06;;;;;;;8.55;4.53;;;;;;;;;;4992561;28;20395;-89
2021/09/01 16:22:41;;;;;;;8.77;4.63;;;;;;;;;;5010946;28;20021;-89
2021/09/01 16:25:13;;;;;;;8.55;4.63;;;;;;;;;;4991059;28;20029;-88
2021/09/01 16:27:39;;;;;;;7.35;4.78;;;;;;;;;;5010279;28;20022;-88
2021/09/01 16:30:05;;;;;;;8.38;4.75;;;;;;;;;;5009594;28;20055;-88
2021/09/01 16:32:30;;;;;;;9.68;4.63;;;;;;;;;;5010743;28;20073;-87
2021/09/01 16:34:59;;;;;;;6.25;4.30;;;;;;;;;;5010013;28;20026;-87
2021/09/01 16:37:27;;;;;;;5.80;3.95;;;;;;;;;;5010440;28;20113;-89
2021/09/01 16:39:53;;;;;;;7.63;4.25;;;;;;;;;;5010643;28;20384;-89
2021/09/01 16:42:19;;;;;;;5.18;3.67;;;;;;;;;;5010295;28;20424;-89
2021/09/01 16:44:45;;;;;;;6.00;4.03;;;;;;;;;;5010196;28;20056;-88
2021/09/01 16:47:10;;;;;;;7.10;4.30;;;;;;;;;;5010790;28;20037;-89
2021/09/01 16:49:36;;;;;;;14.40;11.00;;;;;;;;;;4993628;28;20045;-89
2021/09/01 16:52:07;;;;;;;37.47;30.38;;;;;;;;;;5013564;28;20022;-89
2021/09/01 16:54:40;;;;;;;12.68;7.32;;;;;;;;;;5011496;28;20064;-89
2021/09/01 16:57:08;;;;;;;6.78;4.80;;;;;;;;;;5012152;28;20469;-89
2021/09/01 16:59:36;;;;;;;10.38;4.97;;;;;;;;;;5011217;28;20018;-91
2021/09/01 17:02:02;;;;;;;10.93;6.65;;;;;;;;;;5011989;28;20077;-89
2021/09/01 17:04:29;;;;;;;20.25;14.50;;;;;;;;;;5011703;28;20428;-90
2021/09/01 17:06:54;;;;;;;11.40;6.50;;;;;;;;;;5012003;28;20025;-90
2021/09/01 17:09:23;;;;;;;6.75;4.43;;;;;;;;;;5012349;28;20072;-92
2021/09/01 17:11:49;;;;;;;5.90;4.18;;;;;;;;;;5010873;28;20384;-87
2021/09/01 17:14:15;;;;;;;21.25;15.10;;;;;;;;;;5010765;28;20112;-90
2021/09/01 17:16:40;;;;;;;18.00;12.48;;;;;;;;;;4992258;28;20113;-93
2021/09/01 17:19:12;;;;;;;10.45;7.78;;;;;;;;;;5015377;28;20030;-89
2021/09/01 17:21:38;;;;;;;9.82;5.38;;;;;;;;;;5014462;28;20029;-90
2021/09/01 17:24:03;;;;;;;8.75;4.70;;;;;;;;;;5013891;28;20021;-89
2021/09/01 17:26:31;;;;;;;13.00;6.57;;;;;;;;;;5014259;28;20026;-88
2021/09/01 17:29:02;;;;;;;12.57;4.72;;;;;;;;;;4997646;28;20365;-89
2021/09/01 17:31:29;;;;;;;8.43;5.28;;;;;;;;;;5012670;28;20022;-88
2021/09/01 17:33:55;;;;;;;8.95;5.20;;;;;;;;;;5014085;28;21507;-89
2021/09/01 17:36:24;;;;;;;9.65;5.00;;;;;;;;;;5013905;28;20033;-88
2021/09/01 17:38:51;;;;;;;7.90;5.30;;;;;;;;;;4996576;28;20056;-89
2021/09/01 17:41:19;;;;;;;7.45;5.05;;;;;;;;;;4996903;28;20069;-89
2021/09/01 17:43:44;;;;;;;8.95;4.30;;;;;;;;;;5013849;28;20408;-88
2021/09/01 17:46:14;;;;;;;8.63;5.75;;;;;;;;;;5011506;28;20048;-87
2021/09/01 17:48:39;;;;;;;12.05;5.82;;;;;;;;;;5013304;28;20417;-87
2021/09/01 17:51:04;;;;;;;10.05;5.60;;;;;;;;;;5013358;28;20121;-88
2021/09/01 17:53:30;;;;;;;7.05;4.97;;;;;;;;;;5013229;28;20021;-85
2021/09/01 17:55:55;;;;;;;10.10;5.73;;;;;;;;;;5012505;28;20033;-89
2021/09/01 17:58:24;;;;;;;7.70;4.82;;;;;;;;;;5014913;28;20021;-88
2021/09/01 18:00:51;;;;;;;7.68;5.03;;;;;;;;;;5009403;28;20029;-89
2021/09/01 18:03:16;;;;;;;7.88;5.28;;;;;;;;;;5014297;28;20520;-90
2021/09/01 18:05:42;;;;;;;7.50;5.20;;;;;;;;;;5014731;28;20121;-90
2021/09/01 18:08:07;;;;;;;8.90;4.45;;;;;;;;;;5015100;28;20028;-92
2021/09/01 18:10:32;;;;;;;7.18;4.70;;;;;;;;;;5012935;28;20025;-88
2021/09/01 18:12:58;;;;;;;8.68;5.03;;;;;;;;;;5013238;28;20097;-87
2021/09/01 18:15:23;;;;;;;9.20;4.97;;;;;;;;;;5013188;28;20026;-87
2021/09/01 18:17:48;;;;;;;11.60;7.73;;;;;;;;;;5012191;28;20022;-88
2021/09/01 18:20:13;;;;;;;10.48;4.68;;;;;;;;;;4994546;28;20356;-86
2021/09/01 18:22:39;;;;;;;10.45;5.30;;;;;;;;;;5012129;28;20044;-88
2021/09/01 18:25:05;;;;;;;14.63;11.07;;;;;;;;;;4994832;28;20037;-87
2021/09/01 18:27:31;;;;;;;35.60;25.88;;;;;;;;;;5011865;28;20428;-85
2021/09/01 18:29:56;;;;;;;13.17;7.50;;;;;;;;;;5012003;28;20025;-86
2021/09/01 18:32:24;;;;;;;9.00;5.50;;;;;;;;;;5008851;28;21632;-85
2021/09/01 18:34:49;;;;;;;8.63;5.00;;;;;;;;;;5013710;28;20410;-87
2021/09/01 18:37:15;;;;;;;7.68;5.38;;;;;;;;;;5013968;28;20022;-86
2021/09/01 18:39:40;;;;;;;9.27;5.10;;;;;;;;;;5011509;28;20530;-85
2021/09/01 18:42:10;;;;;;;10.57;5.78;;;;;;;;;;5010392;28;20735;-87
2021/09/01 18:44:41;;;;;;;9.43;5.47;;;;;;;;;;5010422;28;20472;-86
2021/09/01 18:47:07;;;;;;;8.05;4.65;;;;;;;;;;5012084;28;20029;-88
2021/09/01 18:49:32;;;;;;;8.18;5.03;;;;;;;;;;5013105;28;20048;-86
2021/09/01 18:51:59;;;;;;;8.20;4.80;;;;;;;;;;5010970;28;20037;-85
2021/09/01 18:54:24;;;;;;;11.93;6.28;;;;;;;;;;5011237;28;20291;-87